Time;durP1;ratioP1;P1;durP2;ratioP2;P2;SDS_P1;SDS_P2;PMS_P1;PMS_P2;Temp;Humidity;BMP_temperature;BMP_pressure;BME280_temperature;BME280_humidity;BME280_pressure;Samples;Min_cycle;Max_cycle;Signal;HPM_P1;HPM_P2
2022/11/23 00:00:21;;;;;;;5.38;2.67;;;;;;;-0.34;100.00;91687.44;2131709;27;20022;-72
2022/11/23 00:01:24;;;;;;;6.82;2.60;;;;;;;-0.43;100.00;91687.09;2131793;27;20042;-74
2022/11/23 00:02:25;;;;;;;4.00;2.40;;;;;;;-0.33;100.00;91681.78;2131964;27;20023;-75
2022/11/23 00:03:26;;;;;;;8.77;2.50;;;;;;;-0.46;100.00;91682.59;2132307;27;20353;-73
2022/11/23 00:04:28;;;;;;;7.47;2.38;;;;;;;-0.52;100.00;91688.25;2131126;27;20022;-73
2022/11/23 00:05:30;;;;;;;6.60;2.30;;;;;;;-0.49;100.00;91685.97;2131318;27;20095;-73
2022/11/23 00:06:31;;;;;;;5.35;2.50;;;;;;;-0.45;100.00;91686.72;2135648;27;20077;-73
2022/11/23 00:07:32;;;;;;;4.20;2.20;;;;;;;-0.48;100.00;91679.59;2131874;27;20718;-73
2022/11/23 00:08:33;;;;;;;6.20;2.30;;;;;;;-0.47;100.00;91700.22;2133795;27;20019;-75
2022/11/23 00:09:34;;;;;;;5.82;2.50;;;;;;;-0.51;100.00;91683.75;2140498;27;20052;-76
2022/11/23 00:10:35;;;;;;;5.50;2.60;;;;;;;-0.60;100.00;91688.66;2140228;27;20596;-73
2022/11/23 00:11:36;;;;;;;9.07;2.75;;;;;;;-0.62;100.00;91694.25;2140480;27;20033;-73
2022/11/23 00:12:37;;;;;;;4.65;2.20;;;;;;;-0.64;100.00;91690.53;2140509;27;20026;-73
2022/11/23 00:13:39;;;;;;;10.15;2.38;;;;;;;-0.70;100.00;91690.19;2131138;27;20023;-73
2022/11/23 00:14:40;;;;;;;6.22;2.45;;;;;;;-0.70;100.00;91684.16;2123255;27;20043;-73
2022/11/23 00:15:41;;;;;;;7.22;2.40;;;;;;;-0.77;100.00;91693.56;2122473;27;20433;-73
2022/11/23 00:16:42;;;;;;;4.10;1.98;;;;;;;-0.83;100.00;91697.72;2122631;27;20054;-74
2022/11/23 00:17:47;;;;;;;5.20;2.40;;;;;;;-0.83;100.00;91695.09;2123218;27;20029;-74
2022/11/23 00:18:50;;;;;;;3.53;1.70;;;;;;;-0.82;100.00;91686.09;2123436;27;20030;-73
2022/11/23 00:19:51;;;;;;;7.10;2.33;;;;;;;-0.85;100.00;91691.34;2122470;27;20447;-74
2022/11/23 00:20:52;;;;;;;5.50;2.25;;;;;;;-0.89;100.00;91693.22;2122346;27;20023;-74
2022/11/23 00:21:53;;;;;;;4.78;2.55;;;;;;;-0.94;100.00;91694.34;2122628;27;20019;-73
2022/11/23 00:22:54;;;;;;;4.75;1.92;;;;;;;-0.92;100.00;91696.59;2114270;28;20035;-73
2022/11/23 00:23:55;;;;;;;4.80;2.00;;;;;;;-0.91;100.00;91688.38;2114398;28;20015;-74
2022/11/23 00:24:56;;;;;;;5.65;1.60;;;;;;;-0.87;100.00;91685.72;2122415;27;20027;-74
2022/11/23 00:25:57;;;;;;;8.07;1.65;;;;;;;-0.71;100.00;91691.28;2122874;27;20033;-75
2022/11/23 00:26:58;;;;;;;4.43;1.58;;;;;;;-0.76;100.00;91684.56;2123653;27;20080;-75
2022/11/23 00:27:59;;;;;;;3.35;1.42;;;;;;;-0.84;100.00;91683.09;2123595;27;20369;-73
2022/11/23 00:29:00;;;;;;;5.28;1.50;;;;;;;-0.88;100.00;91690.25;2123236;27;20513;-75
2022/11/23 00:30:01;;;;;;;4.93;1.40;;;;;;;-0.78;100.00;91686.81;2128428;27;20037;-72
2022/11/23 00:31:02;;;;;;;5.10;1.60;;;;;;;-0.81;100.00;91677.09;2130811;27;20026;-75
2022/11/23 00:32:03;;;;;;;3.00;1.38;;;;;;;-0.81;100.00;91681.59;2122790;27;20019;-74
2022/11/23 00:33:04;;;;;;;6.03;1.73;;;;;;;-0.60;100.00;91681.53;2131139;27;20023;-75
2022/11/23 00:34:05;;;;;;;7.07;1.75;;;;;;;-0.69;100.00;91680.44;2131138;27;20024;-74
2022/11/23 00:35:06;;;;;;;4.90;1.55;;;;;;;-0.69;100.00;91683.81;2125963;27;20581;-73
2022/11/23 00:36:13;;;;;;;5.10;1.50;;;;;;;-0.70;100.00;91682.31;2123110;27;20437;-74
2022/11/23 00:37:14;;;;;;;5.30;1.70;;;;;;;-0.71;100.00;91686.03;2123203;27;20041;-73
2022/11/23 00:38:15;;;;;;;2.63;1.10;;;;;;;-0.69;100.00;91683.06;2122598;27;20488;-73
2022/11/23 00:39:16;;;;;;;4.05;1.33;;;;;;;-0.58;100.00;91675.88;2122469;27;20019;-73
2022/11/23 00:40:17;;;;;;;4.93;1.55;;;;;;;-0.60;100.00;91681.53;2127145;27;20368;-73
2022/11/23 00:41:23;;;;;;;3.72;1.45;;;;;;;-0.59;100.00;91671.78;2130637;27;20019;-73
2022/11/23 00:42:23;;;;;;;3.83;1.55;;;;;;;-0.60;100.00;91671.03;2130987;27;20151;-74
2022/11/23 00:43:25;;;;;;;7.45;1.88;;;;;;;-0.65;100.00;91691.66;2131782;27;20071;-73
2022/11/23 00:44:26;;;;;;;5.43;1.67;;;;;;;-0.74;100.00;91678.94;2122241;27;20022;-73
2022/11/23 00:45:27;;;;;;;3.40;1.35;;;;;;;-0.79;100.00;91671.44;2121967;27;20102;-73
2022/11/23 00:46:28;;;;;;;5.40;1.40;;;;;;;-0.81;100.00;91676.34;2130882;27;20055;-73
2022/11/23 00:47:29;;;;;;;4.78;1.60;;;;;;;-0.86;100.00;91677.47;2131011;27;20018;-73
2022/11/23 00:48:30;;;;;;;3.80;1.45;;;;;;;-0.82;100.00;91672.97;2131686;27;20025;-73
2022/11/23 00:49:31;;;;;;;4.15;1.67;;;;;;;-0.89;100.00;91678.22;2131601;27;20031;-72
2022/11/23 00:50:32;;;;;;;4.78;1.40;;;;;;;-0.89;100.00;91674.88;2131210;27;20019;-73
2022/11/23 00:51:35;;;;;;;4.22;1.55;;;;;;;-0.89;100.00;91669.63;2123480;27;20034;-72
2022/11/23 00:52:36;;;;;;;4.07;1.38;;;;;;;-0.91;100.00;91682.38;2122823;27;20085;-74
2022/11/23 00:53:37;;;;;;;4.75;1.33;;;;;;;-0.94;100.00;91670.00;2123005;27;20030;-73
2022/11/23 00:54:38;;;;;;;4.43;1.48;;;;;;;-1.01;100.00;91683.88;2123020;27;20027;-74
2022/11/23 00:55:39;;;;;;;5.03;1.27;;;;;;;-1.05;100.00;91675.28;2122837;27;20050;-74
2022/11/23 00:56:40;;;;;;;6.53;1.58;;;;;;;-1.09;100.00;91683.16;2120771;27;20022;-73
2022/11/23 00:57:41;;;;;;;6.93;1.40;;;;;;;-1.07;100.00;91682.78;2122223;27;20023;-75
2022/11/23 00:58:50;;;;;;;3.88;1.42;;;;;;;-1.04;100.00;91682.78;2122381;27;20020;-73
2022/11/23 00:59:51;;;;;;;2.75;1.52;;;;;;;-1.16;100.00;91685.78;2122975;27;20020;-74
2022/11/23 01:01:13;;;;;;;4.38;1.63;;;;;;;-1.17;100.00;91681.66;2124121;27;20019;-74
2022/11/23 01:02:14;;;;;;;6.82;1.65;;;;;;;-1.22;100.00;91681.31;2123709;27;20042;-74
2022/11/23 01:03:16;;;;;;;3.65;1.50;;;;;;;-1.27;100.00;91679.81;2123190;27;20018;-73
2022/11/23 01:04:17;;;;;;;2.70;1.25;;;;;;;-1.23;100.00;91680.53;2123304;27;20430;-72
2022/11/23 01:05:18;;;;;;;6.03;1.10;;;;;;;-1.28;100.00;91684.28;2123310;27;20049;-72
2022/11/23 01:06:24;;;;;;;2.92;1.30;;;;;;;-1.40;100.00;91679.44;2124885;27;20043;-72
2022/11/23 01:07:29;;;;;;;3.97;1.13;;;;;;;-1.33;100.00;91683.94;2131437;27;20101;-74
2022/11/23 01:08:30;;;;;;;4.43;1.40;;;;;;;-1.27;100.00;91685.81;2131344;27;20075;-72
2022/11/23 01:09:31;;;;;;;3.15;1.13;;;;;;;-1.20;100.00;91687.66;2131552;27;20105;-75
2022/11/23 01:10:32;;;;;;;2.67;1.33;;;;;;;-1.20;100.00;91686.91;2131103;27;20076;-72
2022/11/23 01:11:33;;;;;;;4.28;1.52;;;;;;;-1.29;100.00;91685.41;2130514;27;20023;-73
2022/11/23 01:12:34;;;;;;;2.85;1.30;;;;;;;-1.31;100.00;91682.44;2131462;27;20027;-73
2022/11/23 01:13:36;;;;;;;4.63;1.20;;;;;;;-1.30;100.00;91680.56;2131362;27;20421;-73
2022/11/23 01:14:37;;;;;;;3.17;1.38;;;;;;;-1.29;100.00;91682.06;2131475;27;20369;-75
2022/11/23 01:15:38;;;;;;;5.07;1.50;;;;;;;-1.37;100.00;91686.53;2131394;27;20022;-77
2022/11/23 01:16:41;;;;;;;2.20;1.05;;;;;;;-1.33;100.00;91689.16;2133556;27;20075;-75
2022/11/23 01:17:41;;;;;;;4.78;1.30;;;;;;;-1.32;100.00;91685.41;2131338;27;20026;-74
2022/11/23 01:18:42;;;;;;;6.15;1.25;;;;;;;-1.35;100.00;91686.94;2131271;27;20030;-77
2022/11/23 01:19:43;;;;;;;4.85;1.23;;;;;;;-1.31;100.00;91686.94;2131253;27;20058;-74
2022/11/23 01:20:45;;;;;;;4.05;1.17;;;;;;;-1.25;100.00;91684.69;2131117;27;20022;-75
2022/11/23 01:21:46;;;;;;;6.93;1.42;;;;;;;-1.24;100.00;91686.16;2131178;27;20030;-74
2022/11/23 01:22:47;;;;;;;5.22;0.98;;;;;;;-1.30;100.00;91685.81;2127104;27;20021;-73
2022/11/23 01:23:47;;;;;;;5.25;0.90;;;;;;;-1.31;100.00;91687.69;2130614;27;20404;-72
2022/11/23 01:24:49;;;;;;;7.82;1.00;;;;;;;-1.32;100.00;91680.19;2130589;27;20444;-74
2022/11/23 01:25:50;;;;;;;2.88;0.98;;;;;;;-1.34;100.00;91677.94;2130843;27;20118;-72
2022/11/23 01:26:52;;;;;;;2.30;1.05;;;;;;;-1.35;100.00;91688.81;2130616;27;20552;-72
2022/11/23 01:27:53;;;;;;;2.00;0.80;;;;;;;-1.42;100.00;91689.53;2129902;27;20537;-73
2022/11/23 01:28:54;;;;;;;2.90;1.02;;;;;;;-1.36;100.00;91688.06;2122069;27;20061;-73
2022/11/23 01:29:55;;;;;;;5.00;1.00;;;;;;;-1.25;100.00;91690.66;2122090;27;20027;-73
2022/11/23 01:31:06;;;;;;;1.85;0.80;;;;;;;-1.33;100.00;91686.53;2131055;27;20067;-73
2022/11/23 01:32:07;;;;;;;4.38;1.30;;;;;;;-1.31;100.00;91684.31;2121972;27;20027;-73
2022/11/23 01:33:08;;;;;;;2.80;0.75;;;;;;;-1.34;100.00;91685.81;2122618;27;20045;-72
2022/11/23 01:34:10;;;;;;;3.95;0.80;;;;;;;-1.35;100.00;91686.19;2130621;27;20465;-72
2022/11/23 01:35:11;;;;;;;4.90;0.90;;;;;;;-1.42;100.00;91681.69;2130763;27;20410;-73
2022/11/23 01:36:17;;;;;;;2.92;0.73;;;;;;;-1.39;100.00;91686.19;2137560;27;20030;-73
2022/11/23 01:37:18;;;;;;;2.92;0.70;;;;;;;-1.41;100.00;91683.19;2122387;27;20015;-73
2022/11/23 01:38:19;;;;;;;2.25;0.80;;;;;;;-1.41;100.00;91677.19;2115115;27;20020;-73
2022/11/23 01:39:20;;;;;;;2.55;0.90;;;;;;;-1.43;100.00;91679.44;2123400;27;20038;-75
2022/11/23 01:40:22;;;;;;;2.15;0.82;;;;;;;-1.43;100.00;91677.56;2122263;27;20023;-74
2022/11/23 01:41:29;;;;;;;4.53;0.70;;;;;;;-1.49;100.00;91689.56;2121940;27;20054;-73
2022/11/23 01:42:52;;;;;;;4.80;0.90;;;;;;;-1.46;100.00;91686.19;2114663;27;20061;-73
2022/11/23 01:43:53;;;;;;;4.18;1.10;;;;;;;-1.47;100.00;91676.09;2128990;27;20049;-77
2022/11/23 01:45:29;;;;;;;4.13;0.82;;;;;;;-1.36;100.00;91684.66;2139649;27;20357;-73
2022/11/23 01:46:30;;;;;;;1.88;0.70;;;;;;;-1.43;100.00;91684.69;2139783;27;20026;-73
2022/11/23 01:47:34;;;;;;;2.42;0.73;;;;;;;-1.43;100.00;91689.94;2139653;27;20018;-75
2022/11/23 01:48:43;;;;;;;4.75;0.60;;;;;;;-1.48;100.00;91685.06;2121764;27;20031;-74
2022/11/23 01:49:50;;;;;;;6.45;0.80;;;;;;;-1.49;100.00;91692.19;2115942;27;20537;-73
2022/11/23 01:50:52;;;;;;;10.00;1.27;;;;;;;-1.51;100.00;91689.19;2131164;27;20083;-72
2022/11/23 01:51:56;;;;;;;1.50;0.60;;;;;;;-1.46;100.00;91690.69;2130379;27;20026;-76
2022/11/23 01:52:58;;;;;;;2.40;0.75;;;;;;;-1.49;100.00;91689.56;2130992;27;20022;-73
2022/11/23 01:54:21;;;;;;;5.50;1.05;;;;;;;-1.46;100.00;91683.56;2138799;27;20450;-74
2022/11/23 01:55:23;;;;;;;4.00;0.90;;;;;;;-1.40;100.00;91686.56;2130538;27;20392;-74
2022/11/23 01:56:28;;;;;;;4.07;0.80;;;;;;;-1.41;100.00;91685.78;2131316;27;20083;-74
2022/11/23 01:57:37;;;;;;;2.72;0.75;;;;;;;-1.39;100.00;91685.44;2139509;27;20026;-72
2022/11/23 01:58:43;;;;;;;6.63;0.98;;;;;;;-1.48;100.00;91690.31;2139671;27;20053;-74
2022/11/23 01:59:46;;;;;;;3.03;0.80;;;;;;;-1.57;100.00;91688.81;2123535;27;20027;-74
2022/11/23 02:00:48;;;;;;;3.20;0.90;;;;;;;-1.57;100.00;91694.06;2121806;27;20037;-73
2022/11/23 02:01:49;;;;;;;2.17;0.70;;;;;;;-1.58;100.00;91695.19;2121797;27;20015;-75
2022/11/23 02:02:56;;;;;;;8.10;0.80;;;;;;;-1.62;100.00;91691.81;2113292;28;20533;-74
2022/11/23 02:04:00;;;;;;;3.30;0.82;;;;;;;-1.66;100.00;91701.53;2114194;28;20019;-74
2022/11/23 02:05:01;;;;;;;3.05;0.90;;;;;;;-1.64;100.00;91695.91;2122104;27;20091;-74
2022/11/23 02:06:08;;;;;;;5.47;0.75;;;;;;;-1.63;100.00;91692.16;2131093;27;20042;-73
2022/11/23 02:07:09;;;;;;;3.38;0.68;;;;;;;-1.69;100.00;91698.91;2131116;27;20413;-75
2022/11/23 02:08:13;;;;;;;2.92;0.70;;;;;;;-1.69;100.00;91704.16;2130806;27;20022;-72
2022/11/23 02:09:17;;;;;;;4.20;1.08;;;;;;;-1.71;100.00;91704.53;2138642;27;20099;-74
2022/11/23 02:10:20;;;;;;;2.30;0.80;;;;;;;-1.68;100.00;91695.91;2123387;27;20064;-74
2022/11/23 02:11:21;;;;;;;4.13;0.80;;;;;;;-1.68;100.00;91697.78;2130720;27;20030;-75
2022/11/23 02:12:22;;;;;;;4.07;1.00;;;;;;;-1.68;100.00;91703.75;2131275;27;20026;-75
2022/11/23 02:13:24;;;;;;;3.30;0.82;;;;;;;-1.67;100.00;91705.25;2122036;28;20957;-74
2022/11/23 02:14:26;;;;;;;1.30;0.73;;;;;;;-1.65;100.00;91710.13;2122210;27;20026;-72
2022/11/23 02:15:27;;;;;;;0.70;0.52;;;;;;;-1.66;100.00;91704.16;2137883;27;20080;-73
2022/11/23 02:16:28;;;;;;;3.30;0.80;;;;;;;-1.69;100.00;91704.91;2130183;27;20046;-76
2022/11/23 02:17:29;;;;;;;1.13;0.70;;;;;;;-1.68;100.00;91698.53;2130171;27;20019;-73
2022/11/23 02:18:34;;;;;;;3.33;0.70;;;;;;;-1.70;100.00;91706.03;2130590;27;20015;-74
2022/11/23 02:19:56;;;;;;;1.65;1.38;;;;;;;-1.69;100.00;91707.50;2139564;27;20025;-74
2022/11/23 02:20:59;;;;;;;2.53;0.73;;;;;;;-1.69;100.00;91704.16;2130668;27;20073;-73
2022/11/23 02:22:01;;;;;;;3.35;1.38;;;;;;;-1.63;100.00;91711.25;2130952;27;20029;-73
2022/11/23 02:23:42;;;;;;;3.08;0.90;;;;;;;-1.61;100.00;91709.03;2130873;27;20093;-75
2022/11/23 02:24:48;;;;;;;5.80;1.20;;;;;;;-1.57;100.00;91712.38;2130952;27;20058;-74
2022/11/23 02:26:10;;;;;;;2.83;0.82;;;;;;;-1.57;100.00;91703.78;2137373;27;20444;-72
2022/11/23 02:27:12;;;;;;;2.45;0.77;;;;;;;-1.53;100.00;91713.16;2139611;27;20022;-76
2022/11/23 02:28:22;;;;;;;5.45;1.05;;;;;;;-1.51;100.00;91710.13;2139550;27;20049;-73
2022/11/23 02:29:25;;;;;;;3.92;1.20;;;;;;;-1.56;100.00;91705.28;2130342;27;20026;-73
2022/11/23 02:30:29;;;;;;;3.25;1.02;;;;;;;-1.55;100.00;91714.63;2127813;27;20033;-75
2022/11/23 02:31:30;;;;;;;5.10;0.90;;;;;;;-1.55;100.00;91720.63;2130961;27;20015;-72
2022/11/23 02:32:33;;;;;;;3.05;1.15;;;;;;;-1.55;100.00;91704.16;2130875;27;20030;-73
2022/11/23 02:33:39;;;;;;;5.22;1.30;;;;;;;-1.41;100.00;91703.41;2130880;27;20027;-74
2022/11/23 02:34:40;;;;;;;3.30;1.15;;;;;;;-1.36;100.00;91697.78;2130846;27;20031;-74
2022/11/23 02:36:21;;;;;;;3.90;0.90;;;;;;;-1.42;100.00;91701.91;2133226;27;20019;-73
2022/11/23 02:37:22;;;;;;;2.05;1.10;;;;;;;-1.47;100.00;91699.66;2121396;28;20023;-74
2022/11/23 02:38:27;;;;;;;2.80;1.10;;;;;;;-1.36;100.00;91703.00;2121817;27;20034;-75
2022/11/23 02:39:31;;;;;;;2.97;0.90;;;;;;;-1.35;100.00;91701.91;2130850;27;20035;-71
2022/11/23 02:40:35;;;;;;;5.22;1.23;;;;;;;-1.30;100.00;91694.41;2131447;27;20061;-75
2022/11/23 02:41:55;;;;;;;5.07;1.00;;;;;;;-1.24;100.00;91696.66;2139467;27;20374;-73
2022/11/23 02:42:55;;;;;;;6.20;1.08;;;;;;;-1.17;100.00;91705.25;2139355;27;20015;-75
2022/11/23 02:43:56;;;;;;;2.90;0.90;;;;;;;-1.12;100.00;91698.88;2139393;27;20060;-75
2022/11/23 02:45:21;;;;;;;5.25;1.13;;;;;;;-1.17;100.00;91702.63;2130033;27;20076;-74
2022/11/23 02:46:22;;;;;;;2.38;1.10;;;;;;;-1.20;100.00;91689.53;2126420;27;20059;-74
2022/11/23 02:47:23;;;;;;;3.05;1.08;;;;;;;-1.22;100.00;91684.69;2113059;28;20027;-75
2022/11/23 02:48:25;;;;;;;4.60;1.00;;;;;;;-1.24;100.00;91686.91;2113346;27;20074;-73
2022/11/23 02:49:26;;;;;;;1.42;0.90;;;;;;;-1.30;100.00;91688.44;2130955;27;20014;-73
2022/11/23 02:50:27;;;;;;;2.47;0.77;;;;;;;-1.19;100.00;91691.03;2121096;28;20441;-73
2022/11/23 02:51:28;;;;;;;4.70;1.00;;;;;;;-1.31;100.00;91681.69;2127532;27;20050;-73
2022/11/23 02:52:29;;;;;;;3.95;1.90;;;;;;;-1.31;100.00;91681.69;2139646;27;20355;-71
2022/11/23 02:53:30;;;;;;;4.63;0.90;;;;;;;-1.31;100.00;91684.31;2130308;27;20042;-72
2022/11/23 02:54:31;;;;;;;4.68;1.35;;;;;;;-1.28;100.00;91686.16;2130203;27;20030;-74
2022/11/23 02:55:33;;;;;;;4.85;1.15;;;;;;;-1.34;100.00;91685.06;2139583;27;20475;-73
2022/11/23 02:56:33;;;;;;;2.65;1.17;;;;;;;-1.34;100.00;91685.81;2139028;27;20030;-72
2022/11/23 02:57:34;;;;;;;1.80;0.98;;;;;;;-1.38;100.00;91679.06;2139478;27;20584;-72
2022/11/23 02:58:35;;;;;;;4.28;1.10;;;;;;;-1.38;100.00;91687.69;2129621;27;20053;-74
2022/11/23 02:59:36;;;;;;;2.30;1.08;;;;;;;-1.35;100.00;91686.19;2121456;28;20023;-74
2022/11/23 03:00:37;;;;;;;3.75;1.15;;;;;;;-1.32;100.00;91693.28;2129899;27;20096;-72
2022/11/23 03:01:39;;;;;;;4.38;1.02;;;;;;;-1.30;100.00;91694.41;2125611;27;20418;-72
2022/11/23 03:02:40;;;;;;;2.53;0.88;;;;;;;-1.32;100.00;91688.03;2113239;28;20102;-72
2022/11/23 03:03:41;;;;;;;2.05;0.85;;;;;;;-1.30;100.00;91685.81;2121606;27;20040;-71
2022/11/23 03:04:42;;;;;;;5.38;1.25;;;;;;;-1.31;100.00;91689.56;2130834;27;20022;-73
2022/11/23 03:05:43;;;;;;;1.02;0.65;;;;;;;-1.48;100.00;91691.06;2130855;27;20113;-74
2022/11/23 03:06:44;;;;;;;2.75;0.80;;;;;;;-1.46;100.00;91688.06;2133301;27;20025;-74
2022/11/23 03:07:45;;;;;;;2.40;1.05;;;;;;;-1.40;100.00;91689.94;2130032;27;20488;-72
2022/11/23 03:08:45;;;;;;;2.05;0.80;;;;;;;-1.23;100.00;91696.25;2125557;27;20018;-73
2022/11/23 03:09:46;;;;;;;1.95;0.85;;;;;;;-1.33;100.00;91697.03;2138758;27;20034;-72
2022/11/23 03:10:47;;;;;;;3.83;1.10;;;;;;;-1.47;100.00;91694.44;2139144;27;20015;-74
2022/11/23 03:11:48;;;;;;;1.92;1.10;;;;;;;-1.48;100.00;91693.69;2135859;27;20014;-72
2022/11/23 03:12:53;;;;;;;4.30;1.13;;;;;;;-1.47;100.00;91692.56;2130134;27;20050;-74
2022/11/23 03:13:54;;;;;;;6.45;2.00;;;;;;;-1.53;100.00;91692.19;2129549;27;20030;-73
2022/11/23 03:14:55;;;;;;;2.72;1.00;;;;;;;-1.50;100.00;91692.53;2121320;28;20072;-71
2022/11/23 03:15:56;;;;;;;4.28;1.23;;;;;;;-1.55;100.00;91683.19;2121725;27;20469;-72
2022/11/23 03:16:58;;;;;;;2.20;1.20;;;;;;;-1.55;100.00;91683.94;2137079;27;20325;-74
2022/11/23 03:17:59;;;;;;;4.78;1.20;;;;;;;-1.52;100.00;91687.69;2130711;27;20029;-73
2022/11/23 03:19:00;;;;;;;3.47;1.30;;;;;;;-1.53;100.00;91686.94;2130689;27;20026;-73
2022/11/23 03:20:01;;;;;;;3.67;1.30;;;;;;;-1.56;100.00;91690.31;2131190;27;20042;-74
2022/11/23 03:21:03;;;;;;;2.78;1.23;;;;;;;-1.56;100.00;91686.94;2131963;27;20040;-74
2022/11/23 03:22:04;;;;;;;5.85;1.20;;;;;;;-1.63;100.00;91689.53;2123368;27;20492;-74
2022/11/23 03:23:05;;;;;;;2.47;1.15;;;;;;;-1.63;100.00;91681.69;2131781;27;20026;-73
2022/11/23 03:24:06;;;;;;;6.38;1.60;;;;;;;-1.64;100.00;91691.41;2123019;27;20046;-73
2022/11/23 03:25:07;;;;;;;2.97;1.20;;;;;;;-1.70;100.00;91692.19;2123136;27;20022;-73
2022/11/23 03:26:08;;;;;;;4.72;1.30;;;;;;;-1.67;100.00;91683.56;2131740;27;20022;-73
2022/11/23 03:27:09;;;;;;;4.78;1.40;;;;;;;-1.67;100.00;91686.19;2122854;27;21214;-73
2022/11/23 03:28:11;;;;;;;2.42;1.23;;;;;;;-1.71;100.00;91680.97;2123160;27;20029;-73
2022/11/23 03:29:12;;;;;;;3.63;1.08;;;;;;;-1.73;100.00;91688.44;2123324;27;20015;-72
2022/11/23 03:30:13;;;;;;;5.65;1.60;;;;;;;-1.67;100.00;91688.78;2123176;27;20066;-74
2022/11/23 03:31:14;;;;;;;2.55;1.30;;;;;;;-1.66;100.00;91688.44;2123034;27;20031;-74
2022/11/23 03:32:15;;;;;;;3.97;1.30;;;;;;;-1.63;100.00;91686.94;2132564;27;20026;-73
2022/11/23 03:33:17;;;;;;;3.25;1.13;;;;;;;-1.60;100.00;91688.81;2132127;27;20042;-74
2022/11/23 03:34:18;;;;;;;3.97;1.35;;;;;;;-1.58;100.00;91684.69;2123031;27;20442;-73
2022/11/23 03:35:19;;;;;;;4.47;1.35;;;;;;;-1.58;100.00;91682.09;2123057;27;20015;-73
2022/11/23 03:36:20;;;;;;;5.15;1.40;;;;;;;-1.63;100.00;91687.66;2126551;27;20030;-72
2022/11/23 03:37:21;;;;;;;3.95;1.20;;;;;;;-1.57;100.00;91677.59;2140942;27;20471;-74
2022/11/23 03:38:22;;;;;;;2.92;1.20;;;;;;;-1.67;100.00;91686.19;2139592;27;20468;-72
2022/11/23 03:39:23;;;;;;;3.05;1.23;;;;;;;-1.72;100.00;91689.91;2141090;27;20788;-73
2022/11/23 03:40:24;;;;;;;6.97;1.40;;;;;;;-1.75;100.00;91688.06;2140504;27;20090;-74
2022/11/23 03:41:24;;;;;;;7.97;1.60;;;;;;;-1.72;100.00;91689.16;2131569;27;20079;-74
2022/11/23 03:42:25;;;;;;;4.53;1.13;;;;;;;-1.70;100.00;91692.19;2131488;27;20437;-74
2022/11/23 03:43:26;;;;;;;5.60;1.60;;;;;;;-1.67;100.00;91686.91;2140070;27;20022;-74
2022/11/23 03:44:27;;;;;;;3.05;1.00;;;;;;;-1.71;100.00;91680.19;2140611;27;20041;-73
2022/11/23 03:45:28;;;;;;;4.32;1.17;;;;;;;-1.67;100.00;91681.69;2140739;27;20348;-74
2022/11/23 03:46:29;;;;;;;3.15;1.33;;;;;;;-1.67;100.00;91681.69;2131440;27;20512;-74
2022/11/23 03:47:31;;;;;;;1.55;0.93;;;;;;;-1.59;100.00;91679.81;2131733;27;20038;-74
2022/11/23 03:48:31;;;;;;;7.22;1.60;;;;;;;-1.60;100.00;91676.44;2135354;27;20379;-72
2022/11/23 03:49:32;;;;;;;3.22;1.27;;;;;;;-1.59;100.00;91677.94;2132021;27;20014;-73
2022/11/23 03:50:33;;;;;;;7.07;1.17;;;;;;;-1.58;100.00;91676.84;2131318;27;20039;-74
2022/11/23 03:51:35;;;;;;;3.90;1.45;;;;;;;-1.49;100.00;91680.94;2122826;27;20038;-72
2022/11/23 03:52:36;;;;;;;2.03;1.15;;;;;;;-1.48;100.00;91670.09;2122956;27;20155;-74
2022/11/23 03:53:37;;;;;;;4.40;1.60;;;;;;;-1.53;100.00;91675.72;2131734;27;20023;-72
2022/11/23 03:54:38;;;;;;;2.33;1.08;;;;;;;-1.49;100.00;91675.69;2131834;27;20675;-74
2022/11/23 03:55:39;;;;;;;4.32;1.25;;;;;;;-1.43;100.00;91674.94;2114403;28;20047;-74
2022/11/23 03:56:40;;;;;;;3.83;1.20;;;;;;;-1.41;100.00;91682.44;2114541;27;20023;-74
2022/11/23 03:57:41;;;;;;;5.70;1.05;;;;;;;-1.35;100.00;91673.81;2132034;27;20030;-74
2022/11/23 03:58:42;;;;;;;2.72;1.42;;;;;;;-1.25;100.00;91669.69;2134322;27;20041;-74
2022/11/23 03:59:42;;;;;;;5.35;2.00;;;;;;;-1.30;100.00;91672.69;2140608;27;20030;-74
2022/11/23 04:00:43;;;;;;;2.33;1.17;;;;;;;-1.31;100.00;91679.06;2140357;27;20027;-76
2022/11/23 04:01:44;;;;;;;4.00;1.40;;;;;;;-1.29;100.00;91674.19;2140658;27;20022;-73
2022/11/23 04:02:45;;;;;;;4.25;1.10;;;;;;;-1.35;100.00;91679.06;2140728;27;20022;-75
2022/11/23 04:03:46;;;;;;;3.58;1.20;;;;;;;-1.31;100.00;91671.22;2138347;27;20021;-74
2022/11/23 04:04:47;;;;;;;3.83;1.25;;;;;;;-1.30;100.00;91668.19;2132004;27;20050;-73
2022/11/23 04:05:49;;;;;;;5.90;1.20;;;;;;;-1.26;100.00;91668.22;2123829;27;20015;-72
2022/11/23 04:06:50;;;;;;;2.30;0.75;;;;;;;-1.32;100.00;91669.69;2123447;27;20027;-75
2022/11/23 04:07:51;;;;;;;2.00;0.98;;;;;;;-1.39;100.00;91670.47;2124447;27;20022;-73
2022/11/23 04:08:52;;;;;;;5.95;1.70;;;;;;;-1.40;100.00;91668.97;2135804;27;20041;-76
2022/11/23 04:09:53;;;;;;;8.23;1.50;;;;;;;-1.33;100.00;91665.59;2122839;27;20035;-73
2022/11/23 04:10:58;;;;;;;6.45;2.78;;;;;;;-1.47;100.00;91660.38;2122634;27;20022;-73
2022/11/23 04:11:59;;;;;;;6.47;3.00;;;;;;;-1.53;100.00;91660.00;2131927;27;20026;-73
2022/11/23 04:13:01;;;;;;;4.07;3.20;;;;;;;-1.64;100.00;91649.50;2131884;27;20030;-74
2022/11/23 04:14:02;;;;;;;3.55;2.90;;;;;;;-1.53;100.00;91652.88;2122979;27;20093;-73
2022/11/23 04:15:04;;;;;;;5.78;2.90;;;;;;;-1.50;100.00;91646.13;2113999;28;20015;-72
2022/11/23 04:16:06;;;;;;;2.58;1.58;;;;;;;-1.42;100.00;91645.00;2114193;27;20023;-74
2022/11/23 04:17:07;;;;;;;2.08;1.20;;;;;;;-1.51;100.00;91649.88;2114061;28;20023;-74
2022/11/23 04:18:08;;;;;;;2.33;1.38;;;;;;;-1.55;100.00;91652.50;2114300;28;20031;-75
2022/11/23 04:19:08;;;;;;;4.22;1.40;;;;;;;-1.59;100.00;91654.38;2131882;27;20046;-75
2022/11/23 04:20:10;;;;;;;3.17;1.30;;;;;;;-1.56;100.00;91655.50;2130893;27;20058;-75
2022/11/23 04:21:11;;;;;;;2.60;1.02;;;;;;;-1.59;100.00;91648.38;2122360;27;20031;-74
2022/11/23 04:22:12;;;;;;;4.13;1.60;;;;;;;-1.63;100.00;91658.84;2131221;27;20031;-73
2022/11/23 04:23:13;;;;;;;4.45;1.20;;;;;;;-1.56;100.00;91655.50;2131206;27;20038;-73
2022/11/23 04:24:14;;;;;;;6.03;1.23;;;;;;;-1.36;100.00;91650.59;2140485;27;20372;-73
2022/11/23 04:25:15;;;;;;;3.40;1.23;;;;;;;-1.36;100.00;91655.84;2123164;27;20064;-72
2022/11/23 04:26:16;;;;;;;2.88;1.08;;;;;;;-1.55;100.00;91654.38;2122728;27;20058;-75
2022/11/23 04:27:17;;;;;;;4.53;1.20;;;;;;;-1.65;100.00;91650.63;2131885;27;20018;-74
2022/11/23 04:28:18;;;;;;;3.13;1.05;;;;;;;-1.64;100.00;91652.13;2131949;27;20356;-74
2022/11/23 04:29:18;;;;;;;3.45;1.00;;;;;;;-1.64;100.00;91643.53;2131821;27;20015;-73
2022/11/23 04:30:20;;;;;;;4.32;1.27;;;;;;;-1.67;100.00;91645.00;2137602;27;20450;-74
2022/11/23 04:31:21;;;;;;;2.45;1.15;;;;;;;-1.86;100.00;91646.16;2130797;27;20030;-71
2022/11/23 04:32:22;;;;;;;2.80;0.82;;;;;;;-1.94;100.00;91651.75;2122359;27;20508;-74
2022/11/23 04:33:24;;;;;;;2.13;1.02;;;;;;;-1.99;100.00;91649.50;2122520;27;20023;-73
2022/11/23 04:34:25;;;;;;;4.47;1.10;;;;;;;-1.98;100.00;91636.03;2131203;27;20042;-72
2022/11/23 04:35:26;;;;;;;2.78;1.35;;;;;;;-2.04;100.00;91642.78;2139658;27;20033;-72
2022/11/23 04:36:27;;;;;;;4.05;1.40;;;;;;;-2.03;100.00;91634.53;2135834;27;20019;-73
2022/11/23 04:37:28;;;;;;;4.18;1.33;;;;;;;-2.07;100.00;91633.78;2131771;27;20023;-73
2022/11/23 04:38:29;;;;;;;3.67;1.17;;;;;;;-2.09;100.00;91630.78;2131697;27;20034;-73
2022/11/23 04:39:30;;;;;;;1.98;0.90;;;;;;;-2.08;100.00;91636.78;2131664;27;20023;-74
2022/11/23 04:40:31;;;;;;;3.17;1.10;;;;;;;-2.06;100.00;91639.78;2125888;27;20440;-75
2022/11/23 04:41:32;;;;;;;2.95;1.40;;;;;;;-2.11;100.00;91634.91;2131074;27;20516;-72
2022/11/23 04:42:33;;;;;;;4.13;1.00;;;;;;;-2.12;100.00;91634.16;2122417;27;20027;-75
2022/11/23 04:43:34;;;;;;;1.55;0.90;;;;;;;-2.08;100.00;91631.53;2113993;27;20028;-75
2022/11/23 04:44:35;;;;;;;6.03;1.10;;;;;;;-2.07;100.00;91639.00;2130958;27;20050;-75
2022/11/23 04:45:38;;;;;;;1.88;0.80;;;;;;;-2.08;100.00;91644.63;2140204;27;20014;-74
2022/11/23 04:46:39;;;;;;;4.75;1.30;;;;;;;-2.14;100.00;91630.44;2131594;27;20037;-74
2022/11/23 04:47:40;;;;;;;2.33;1.13;;;;;;;-2.09;100.00;91640.53;2131547;27;20026;-73
2022/11/23 04:48:41;;;;;;;2.90;1.23;;;;;;;-2.15;100.00;91639.38;2131695;27;20018;-72
2022/11/23 04:49:42;;;;;;;3.33;1.20;;;;;;;-2.07;100.00;91633.78;2131524;27;20019;-73
2022/11/23 04:50:43;;;;;;;6.07;1.27;;;;;;;-2.07;100.00;91639.00;2131178;27;20069;-72